SGCO/CIO METAR and TAF weather

Enter ICAO airport designator
Station Type Date Time Source
SGCO METAR 2019/02/15 21:00 UTC NOAA

SGCO 152100Z 18008KT 9999 SCT030 29/19 Q1008


Station Type Date Time Source
SGCO Decoded METAR 2019/02/15 21:00 UTC NOAA

Concepcion, Paraguay (SGCO) 23-25S 057-18W 74M
Feb 15, 2019 - 04:00 PM EST / 2019.02.15 2100 UTC
Wind: from the S (180 degrees) at 9 MPH (8 KT):0
Visibility: greater than 7 mile(s):0
Sky conditions: partly cloudy
Temperature: 84 F (29 C)
Dew Point: 66 F (19 C)
Relative Humidity: 54%
Pressure (altimeter): 29.77 in. Hg (1008 hPa)
ob: SGCO 152100Z 18008KT 9999 SCT030 29/19 Q1008
cycle: 21

Station Type Date Time Source
SGCO TAF 2019/02/22 18:00 UTC NOAA

TAF SGCO 221612Z 2218/2318 05004KT 9999 SCT033 TX39/2219Z TN27/2309Z PROB40 2219/2221 6000 TSRA BKN024 FEW040CB
BECMG 2220/2222 VRB04KT 8000 -RA BKN020
BECMG 2300/2303 9999 SCT027
BECMG 2303/2306 00000KT CAVOK


Example: see airport list